Wetterdaten: Woche 01.05.17 - 07.05.17 (KW18)
Datum Zeit Temperatur Luftfeuchte Luftdruck Niederschlag Windrichtung Sonnenschein Solar Wind
01.05.2017 00:00 6,9 C 82 % 1004,9 hPa 0,0 l/m N 0,00 h 0 W/m 0,0 km/h (0 Bft)
01.05.2017 01:00 5,8 C 86 % 1004,6 hPa 0,0 l/m NO 0,00 h 0 W/m 0,8 km/h (0 Bft)
01.05.2017 02:00 5,2 C 88 % 1004,1 hPa 0,0 l/m N 0,00 h 0 W/m 0,0 km/h (0 Bft)
01.05.2017 03:00 4,5 C 90 % 1004,2 hPa 0,0 l/m N 0,00 h 0 W/m 0,0 km/h (0 Bft)
01.05.2017 04:00 3,8 C 92 % 1004,2 hPa 0,0 l/m NO 0,00 h 0 W/m 1,3 km/h (1 Bft)
01.05.2017 05:00 4,0 C 92 % 1004,3 hPa 0,0 l/m NO 0,00 h 5 W/m 2,5 km/h (1 Bft)
01.05.2017 06:00 5,1 C 89 % 1005,3 hPa 0,0 l/m N 0,00 h 13 W/m 2,8 km/h (1 Bft)
01.05.2017 07:00 4,4 C 90 % 1006,7 hPa 0,0 l/m N 0,00 h 74 W/m 0,5 km/h (0 Bft)
01.05.2017 08:00 6,3 C 89 % 1007,7 hPa 0,0 l/m N-NO 0,00 h 162 W/m 2,9 km/h (1 Bft)
01.05.2017 09:00 8,0 C 85 % 1008,3 hPa 0,0 l/m SW 0,00 h 100 W/m 10,5 km/h (2 Bft)
01.05.2017 10:00 7,1 C 90 % 1009,0 hPa 0,2 l/m W 0,00 h 50 W/m 14,0 km/h (3 Bft)
01.05.2017 11:00 6,2 C 93 % 1010,0 hPa 2,4 l/m W-SW 0,00 h 68 W/m 10,8 km/h (2 Bft)
01.05.2017 12:00 5,5 C 95 % 1010,8 hPa 1,8 l/m W 0,00 h 98 W/m 11,8 km/h (2 Bft)
01.05.2017 13:00 5,2 C 95 % 1011,5 hPa 1,4 l/m W-NW 0,00 h 172 W/m 13,6 km/h (3 Bft)
01.05.2017 14:00 5,4 C 95 % 1012,0 hPa 1,2 l/m W-NW 0,00 h 196 W/m 13,4 km/h (3 Bft)
01.05.2017 15:00 5,6 C 94 % 1012,5 hPa 1,2 l/m W 0,00 h 117 W/m 12,1 km/h (2 Bft)
01.05.2017 16:00 5,6 C 95 % 1013,2 hPa 1,2 l/m W-SW 0,00 h 159 W/m 14,4 km/h (3 Bft)
01.05.2017 17:00 5,5 C 94 % 1013,8 hPa 0,8 l/m W-SW 0,00 h 119 W/m 13,8 km/h (3 Bft)
01.05.2017 18:00 5,3 C 95 % 1014,0 hPa 0,8 l/m W-SW 0,00 h 66 W/m 12,5 km/h (3 Bft)
01.05.2017 19:00 5,2 C 96 % 1014,2 hPa 0,4 l/m W-SW 0,00 h 28 W/m 8,6 km/h (2 Bft)
01.05.2017 20:00 5,1 C 96 % 1014,6 hPa 0,4 l/m W-SW 0,00 h 7 W/m 9,8 km/h (2 Bft)
01.05.2017 21:00 5,1 C 97 % 1015,0 hPa 1,4 l/m W-SW 0,00 h 0 W/m 5,8 km/h (1 Bft)
01.05.2017 22:00 4,9 C 97 % 1015,1 hPa 1,4 l/m W-SW 0,00 h 0 W/m 10,5 km/h (2 Bft)
01.05.2017 23:00 5,0 C 97 % 1015,0 hPa 0,2 l/m SW 0,00 h 0 W/m 10,3 km/h (2 Bft)
02.05.2017 00:00 4,9 C 97 % 1015,2 hPa 0,2 l/m SW 0,00 h 0 W/m 9,9 km/h (2 Bft)
02.05.2017 01:00 4,8 C 97 % 1015,5 hPa 1,2 l/m SW 0,00 h 0 W/m 4,6 km/h (1 Bft)
02.05.2017 02:00 4,7 C 97 % 1015,3 hPa 0,8 l/m SW 0,00 h 0 W/m 11,0 km/h (2 Bft)
02.05.2017 03:00 4,7 C 98 % 1015,1 hPa 0,4 l/m SW 0,00 h 0 W/m 10,7 km/h (2 Bft)
02.05.2017 04:00 4,5 C 98 % 1014,7 hPa 0,2 l/m W-SW 0,00 h 0 W/m 20,0 km/h (4 Bft)
02.05.2017 05:00 4,3 C 97 % 1014,5 hPa 0,0 l/m W-SW 0,00 h 0 W/m 18,4 km/h (3 Bft)
02.05.2017 06:00 4,4 C 97 % 1014,8 hPa 0,4 l/m SW 0,00 h 13 W/m 17,0 km/h (3 Bft)
02.05.2017 07:00 4,7 C 97 % 1014,9 hPa 0,2 l/m W-SW 0,00 h 46 W/m 14,8 km/h (3 Bft)
02.05.2017 08:00 5,1 C 98 % 1014,8 hPa 0,0 l/m SW 0,00 h 88 W/m 14,6 km/h (3 Bft)
02.05.2017 09:00 5,8 C 98 % 1014,8 hPa 0,0 l/m SW 0,00 h 237 W/m 16,6 km/h (3 Bft)
02.05.2017 10:00 7,4 C 95 % 1014,7 hPa 0,0 l/m W-SW 0,42 h 435 W/m 15,2 km/h (3 Bft)
02.05.2017 11:00 10,0 C 85 % 1014,4 hPa 0,0 l/m S-SW 0,83 h 795 W/m 16,1 km/h (3 Bft)
02.05.2017 12:00 11,4 C 72 % 1014,2 hPa 0,0 l/m NW 0,58 h 718 W/m 12,6 km/h (3 Bft)
02.05.2017 13:00 12,6 C 65 % 1013,7 hPa 0,0 l/m W-NW 0,83 h 975 W/m 13,0 km/h (3 Bft)
02.05.2017 14:00 13,8 C 58 % 1013,4 hPa 0,0 l/m SW 0,75 h 758 W/m 18,6 km/h (3 Bft)
02.05.2017 15:00 14,1 C 54 % 1013,3 hPa 0,0 l/m S-SW 0,83 h 588 W/m 18,6 km/h (3 Bft)
02.05.2017 16:00 14,5 C 50 % 1013,3 hPa 0,0 l/m SW 0,75 h 548 W/m 20,5 km/h (4 Bft)
02.05.2017 17:00 13,9 C 51 % 1013,6 hPa 0,0 l/m W-SW 0,58 h 316 W/m 16,6 km/h (3 Bft)
02.05.2017 18:00 13,2 C 52 % 1013,7 hPa 0,0 l/m W 0,25 h 172 W/m 12,0 km/h (2 Bft)
02.05.2017 19:00 12,1 C 62 % 1013,7 hPa 0,0 l/m NW 0,00 h 57 W/m 7,9 km/h (2 Bft)
02.05.2017 20:00 10,8 C 72 % 1013,8 hPa 0,0 l/m N-NW 0,08 h 12 W/m 3,1 km/h (1 Bft)
02.05.2017 21:00 9,2 C 81 % 1014,1 hPa 0,0 l/m N 0,00 h 0 W/m 0,0 km/h (0 Bft)
02.05.2017 22:00 8,0 C 87 % 1014,6 hPa 0,0 l/m N 0,00 h 0 W/m 0,0 km/h (0 Bft)
02.05.2017 23:00 8,1 C 88 % 1014,8 hPa 0,0 l/m N-NW 0,00 h 0 W/m 0,4 km/h (0 Bft)
03.05.2017 00:00 8,1 C 89 % 1015,2 hPa 0,0 l/m N 0,00 h 0 W/m 0,0 km/h (0 Bft)
03.05.2017 01:00 7,9 C 91 % 1015,7 hPa 0,6 l/m N 0,00 h 0 W/m 0,0 km/h (0 Bft)
03.05.2017 02:00 7,2 C 95 % 1015,6 hPa 1,2 l/m N-NW 0,00 h 0 W/m 0,0 km/h (0 Bft)
03.05.2017 03:00 6,9 C 96 % 1015,4 hPa 0,2 l/m N-NW 0,00 h 0 W/m 1,3 km/h (1 Bft)
03.05.2017 04:00 6,9 C 96 % 1015,4 hPa 0,0 l/m N 0,00 h 0 W/m 0,0 km/h (0 Bft)
03.05.2017 05:00 6,8 C 96 % 1015,4 hPa 0,0 l/m N 0,00 h 0 W/m 0,0 km/h (0 Bft)
03.05.2017 06:00 6,9 C 97 % 1015,6 hPa 0,0 l/m N 0,00 h 25 W/m 0,0 km/h (0 Bft)
03.05.2017 07:00 7,2 C 97 % 1015,7 hPa 0,0 l/m N 0,00 h 66 W/m 0,4 km/h (0 Bft)
03.05.2017 08:00 7,5 C 98 % 1015,8 hPa 0,0 l/m N 0,00 h 79 W/m 0,0 km/h (0 Bft)
03.05.2017 09:00 7,9 C 96 % 1016,0 hPa 0,0 l/m N-NW 0,00 h 90 W/m 2,5 km/h (1 Bft)
03.05.2017 10:00 8,7 C 94 % 1016,0 hPa 0,0 l/m N-NW 0,00 h 252 W/m 2,1 km/h (1 Bft)
03.05.2017 11:00 9,3 C 89 % 1016,0 hPa 0,0 l/m NW 0,00 h 241 W/m 4,0 km/h (1 Bft)
03.05.2017 12:00 9,8 C 86 % 1016,0 hPa 0,0 l/m NW 0,00 h 305 W/m 6,0 km/h (2 Bft)
03.05.2017 13:00 10,7 C 81 % 1015,7 hPa 0,0 l/m W-SW 0,08 h 391 W/m 7,9 km/h (2 Bft)
03.05.2017 14:00 12,3 C 72 % 1015,3 hPa 0,0 l/m W-SW 0,75 h 604 W/m 6,2 km/h (2 Bft)
03.05.2017 15:00 13,3 C 66 % 1014,8 hPa 0,0 l/m N 0,50 h 549 W/m 7,1 km/h (2 Bft)
03.05.2017 16:00 13,9 C 64 % 1014,4 hPa 0,0 l/m NO 0,50 h 435 W/m 6,6 km/h (2 Bft)
03.05.2017 17:00 13,7 C 64 % 1014,2 hPa 0,0 l/m O 0,42 h 286 W/m 7,4 km/h (2 Bft)
03.05.2017 18:00 13,8 C 62 % 1014,0 hPa 0,0 l/m O 0,58 h 199 W/m 7,1 km/h (2 Bft)
03.05.2017 19:00 13,2 C 65 % 1014,0 hPa 0,0 l/m O-NO 0,50 h 99 W/m 6,9 km/h (2 Bft)
03.05.2017 20:00 11,5 C 73 % 1014,4 hPa 0,0 l/m N 0,08 h 17 W/m 0,3 km/h (0 Bft)
03.05.2017 21:00 9,4 C 84 % 1014,5 hPa 0,0 l/m N 0,00 h 0 W/m 0,0 km/h (0 Bft)
03.05.2017 22:00 8,4 C 87 % 1014,5 hPa 0,0 l/m O-NO 0,00 h 0 W/m 0,7 km/h (0 Bft)
03.05.2017 23:00 7,4 C 91 % 1014,6 hPa 0,0 l/m N 0,00 h 0 W/m 0,9 km/h (0 Bft)
04.05.2017 00:00 6,4 C 93 % 1014,4 hPa 0,0 l/m N 0,00 h 0 W/m 0,0 km/h (0 Bft)
04.05.2017 01:00 5,8 C 95 % 1014,2 hPa 0,0 l/m N 0,00 h 0 W/m 0,0 km/h (0 Bft)
04.05.2017 02:00 5,4 C 95 % 1014,2 hPa 0,0 l/m N 0,00 h 0 W/m 0,0 km/h (0 Bft)
04.05.2017 03:00 5,1 C 95 % 1013,9 hPa 0,0 l/m N 0,00 h 0 W/m 0,3 km/h (0 Bft)
04.05.2017 04:00 4,8 C 96 % 1013,7 hPa 0,0 l/m N 0,00 h 0 W/m 0,0 km/h (0 Bft)
04.05.2017 05:00 4,8 C 96 % 1013,4 hPa 0,0 l/m N 0,00 h 0 W/m 0,0 km/h (0 Bft)
04.05.2017 06:00 5,4 C 97 % 1013,2 hPa 0,8 l/m O-NO 0,00 h 14 W/m 1,2 km/h (1 Bft)
04.05.2017 07:00 6,4 C 97 % 1013,2 hPa 0,0 l/m O-NO 0,25 h 84 W/m 3,6 km/h (1 Bft)
04.05.2017 08:00 7,8 C 96 % 1013,0 hPa 0,0 l/m N 0,67 h 262 W/m 0,3 km/h (0 Bft)
04.05.2017 09:00 9,6 C 93 % 1012,9 hPa 0,0 l/m O-SO 0,83 h 362 W/m 7,8 km/h (2 Bft)
04.05.2017 10:00 10,7 C 88 % 1012,7 hPa 0,0 l/m S 0,33 h 399 W/m 6,8 km/h (2 Bft)
04.05.2017 11:00 11,8 C 83 % 1012,7 hPa 0,0 l/m SW 0,75 h 643 W/m 11,2 km/h (2 Bft)
04.05.2017 12:00 12,5 C 77 % 1012,5 hPa 0,0 l/m SW 0,42 h 399 W/m 10,6 km/h (2 Bft)
04.05.2017 13:00 12,0 C 78 % 1012,2 hPa 0,2 l/m W-SW 0,00 h 228 W/m 11,0 km/h (2 Bft)
04.05.2017 14:00 10,7 C 84 % 1012,2 hPa 0,2 l/m NW 0,17 h 283 W/m 8,7 km/h (2 Bft)
04.05.2017 15:00 9,3 C 89 % 1012,5 hPa 0,4 l/m NO 0,25 h 248 W/m 16,4 km/h (3 Bft)
04.05.2017 16:00 10,2 C 86 % 1012,5 hPa 0,0 l/m NO 0,67 h 425 W/m 10,9 km/h (2 Bft)
04.05.2017 17:00 10,2 C 86 % 1012,7 hPa 0,0 l/m O-SO 0,00 h 237 W/m 9,3 km/h (2 Bft)
04.05.2017 18:00 10,3 C 82 % 1012,8 hPa 0,0 l/m O-SO 0,58 h 180 W/m 3,7 km/h (1 Bft)
04.05.2017 19:00 9,9 C 84 % 1013,1 hPa 0,0 l/m SW 0,50 h 88 W/m 8,3 km/h (2 Bft)
04.05.2017 20:00 9,2 C 86 % 1013,5 hPa 0,0 l/m SW 0,50 h 32 W/m 3,5 km/h (1 Bft)
04.05.2017 21:00 7,9 C 90 % 1014,4 hPa 0,0 l/m N 0,00 h 0 W/m 0,8 km/h (0 Bft)
04.05.2017 22:00 7,0 C 94 % 1014,8 hPa 0,0 l/m N 0,00 h 0 W/m 0,0 km/h (0 Bft)
04.05.2017 23:00 6,5 C 96 % 1015,1 hPa 0,0 l/m N 0,00 h 0 W/m 0,0 km/h (0 Bft)
05.05.2017 00:00 6,4 C 97 % 1015,4 hPa 0,0 l/m N 0,00 h 0 W/m 0,0 km/h (0 Bft)
05.05.2017 01:00 6,8 C 97 % 1015,5 hPa 0,0 l/m N 0,00 h 0 W/m 0,5 km/h (0 Bft)
05.05.2017 02:00 7,1 C 97 % 1015,5 hPa 0,0 l/m SW 0,00 h 0 W/m 2,0 km/h (1 Bft)
05.05.2017 03:00 7,0 C 97 % 1015,8 hPa 0,0 l/m SW 0,00 h 0 W/m 1,7 km/h (1 Bft)
05.05.2017 04:00 7,0 C 98 % 1015,9 hPa 0,0 l/m SW 0,00 h 0 W/m 0,9 km/h (0 Bft)
05.05.2017 05:00 6,8 C 98 % 1015,8 hPa 0,0 l/m N 0,00 h 0 W/m 0,4 km/h (0 Bft)
05.05.2017 06:00 6,8 C 98 % 1016,2 hPa 0,0 l/m SW 0,00 h 12 W/m 2,1 km/h (1 Bft)
05.05.2017 07:00 6,9 C 98 % 1016,6 hPa 0,0 l/m N 0,00 h 34 W/m 0,0 km/h (0 Bft)
05.05.2017 08:00 7,7 C 98 % 1016,9 hPa 0,0 l/m N 0,33 h 220 W/m 0,0 km/h (0 Bft)
05.05.2017 09:00 9,2 C 91 % 1017,0 hPa 0,0 l/m SW 0,33 h 250 W/m 0,7 km/h (0 Bft)
05.05.2017 10:00 10,1 C 85 % 1017,2 hPa 0,0 l/m SW 0,33 h 393 W/m 2,9 km/h (1 Bft)
05.05.2017 11:00 12,4 C 75 % 1016,9 hPa 0,0 l/m S-SO 1,00 h 850 W/m 6,3 km/h (2 Bft)
05.05.2017 12:00 12,5 C 71 % 1016,5 hPa 0,0 l/m O-NO 0,00 h 233 W/m 4,9 km/h (1 Bft)
05.05.2017 13:00 13,1 C 68 % 1016,4 hPa 0,0 l/m O-NO 0,33 h 450 W/m 4,7 km/h (1 Bft)
05.05.2017 14:00 14,3 C 62 % 1016,4 hPa 0,0 l/m O-NO 1,00 h 516 W/m 6,5 km/h (2 Bft)
05.05.2017 15:00 15,7 C 56 % 1015,8 hPa 0,0 l/m O-NO 0,75 h 672 W/m 7,8 km/h (2 Bft)
05.05.2017 16:00 15,8 C 60 % 1015,4 hPa 0,0 l/m NO 0,67 h 560 W/m 15,2 km/h (3 Bft)
05.05.2017 17:00 15,5 C 61 % 1015,1 hPa 0,0 l/m NO 0,75 h 411 W/m 16,2 km/h (3 Bft)
05.05.2017 18:00 15,3 C 60 % 1015,0 hPa 0,0 l/m O-NO 1,00 h 294 W/m 13,6 km/h (3 Bft)
05.05.2017 19:00 14,4 C 62 % 1014,7 hPa 0,0 l/m O-NO 0,33 h 84 W/m 12,3 km/h (3 Bft)
05.05.2017 20:00 12,8 C 69 % 1014,7 hPa 0,0 l/m O-NO 0,00 h 15 W/m 5,8 km/h (1 Bft)
05.05.2017 21:00 10,6 C 79 % 1014,6 hPa 0,0 l/m N 0,00 h 0 W/m 1,2 km/h (1 Bft)
05.05.2017 22:00 9,3 C 85 % 1014,3 hPa 0,0 l/m O-NO 0,00 h 0 W/m 3,1 km/h (1 Bft)
05.05.2017 23:00 8,7 C 87 % 1013,9 hPa 0,0 l/m O-NO 0,00 h 0 W/m 4,0 km/h (1 Bft)
06.05.2017 00:00 7,4 C 91 % 1013,1 hPa 0,0 l/m O-NO 0,00 h 0 W/m 2,5 km/h (1 Bft)
06.05.2017 01:00 6,7 C 93 % 1012,5 hPa 0,0 l/m O-NO 0,00 h 0 W/m 0,9 km/h (0 Bft)
06.05.2017 02:00 6,1 C 94 % 1011,8 hPa 0,0 l/m O-NO 0,00 h 0 W/m 2,7 km/h (1 Bft)
06.05.2017 03:00 5,5 C 95 % 1011,4 hPa 0,0 l/m O-NO 0,00 h 0 W/m 2,7 km/h (1 Bft)
06.05.2017 04:00 5,1 C 95 % 1010,9 hPa 0,0 l/m NO 0,00 h 0 W/m 3,9 km/h (1 Bft)
06.05.2017 05:00 4,6 C 96 % 1010,3 hPa 0,0 l/m NO 0,00 h 8 W/m 2,9 km/h (1 Bft)
06.05.2017 06:00 4,4 C 96 % 1010,0 hPa 0,0 l/m NO 0,33 h 33 W/m 4,1 km/h (1 Bft)
06.05.2017 07:00 5,5 C 97 % 1010,2 hPa 0,0 l/m N-NO 0,17 h 107 W/m 5,6 km/h (1 Bft)
06.05.2017 08:00 6,4 C 98 % 1010,5 hPa 0,0 l/m N-NO 0,00 h 152 W/m 8,3 km/h (2 Bft)
06.05.2017 09:00 7,7 C 95 % 1010,3 hPa 0,0 l/m N-NO 0,58 h 359 W/m 5,1 km/h (1 Bft)
06.05.2017 10:00 9,7 C 87 % 1009,9 hPa 0,0 l/m N-NO 0,50 h 402 W/m 3,3 km/h (1 Bft)
06.05.2017 11:00 11,4 C 83 % 1008,9 hPa 0,0 l/m N-NO 0,17 h 401 W/m 2,9 km/h (1 Bft)
06.05.2017 12:00 14,3 C 75 % 1007,8 hPa 0,0 l/m N-NO 0,83 h 705 W/m 3,5 km/h (1 Bft)
06.05.2017 13:00 16,7 C 61 % 1006,8 hPa 0,0 l/m NO 0,50 h 456 W/m 3,6 km/h (1 Bft)
06.05.2017 14:00 17,6 C 57 % 1006,0 hPa 0,0 l/m NO 0,25 h 368 W/m 6,4 km/h (2 Bft)
06.05.2017 15:00 17,4 C 66 % 1005,6 hPa 0,0 l/m N 0,00 h 263 W/m 11,3 km/h (2 Bft)
06.05.2017 16:00 16,4 C 71 % 1005,9 hPa 0,0 l/m N-NW 0,00 h 236 W/m 14,9 km/h (3 Bft)
06.05.2017 17:00 15,3 C 72 % 1006,3 hPa 0,0 l/m N-NW 0,00 h 47 W/m 7,6 km/h (2 Bft)
06.05.2017 18:00 14,0 C 78 % 1006,9 hPa 0,8 l/m W-NW 0,00 h 23 W/m 13,0 km/h (3 Bft)
06.05.2017 19:00 11,3 C 91 % 1007,7 hPa 1,4 l/m W-NW 0,00 h 15 W/m 17,2 km/h (3 Bft)
06.05.2017 20:00 10,6 C 94 % 1008,6 hPa 1,4 l/m W-NW 0,00 h 7 W/m 11,4 km/h (2 Bft)
06.05.2017 21:00 10,1 C 96 % 1009,5 hPa 1,6 l/m W-NW 0,00 h 0 W/m 16,2 km/h (3 Bft)
06.05.2017 22:00 9,7 C 96 % 1010,1 hPa 0,8 l/m W 0,00 h 0 W/m 14,0 km/h (3 Bft)
06.05.2017 23:00 9,4 C 96 % 1010,4 hPa 0,2 l/m W-SW 0,00 h 0 W/m 15,0 km/h (3 Bft)
07.05.2017 00:00 9,3 C 96 % 1010,6 hPa 0,2 l/m W-SW 0,00 h 0 W/m 17,6 km/h (3 Bft)
07.05.2017 01:00 9,3 C 96 % 1010,8 hPa 0,0 l/m SW 0,00 h 0 W/m 12,2 km/h (2 Bft)
07.05.2017 02:00 9,1 C 96 % 1010,9 hPa 0,0 l/m W-SW 0,00 h 0 W/m 17,7 km/h (3 Bft)
07.05.2017 03:00 8,9 C 96 % 1011,0 hPa 0,0 l/m W-SW 0,00 h 0 W/m 18,9 km/h (3 Bft)
07.05.2017 04:00 8,8 C 96 % 1011,1 hPa 0,6 l/m W-SW 0,00 h 0 W/m 18,8 km/h (3 Bft)
07.05.2017 05:00 8,7 C 96 % 1011,3 hPa 0,0 l/m W-SW 0,00 h 0 W/m 20,0 km/h (4 Bft)
07.05.2017 06:00 8,6 C 96 % 1011,3 hPa 0,2 l/m W-SW 0,00 h 14 W/m 18,4 km/h (3 Bft)
07.05.2017 07:00 8,7 C 96 % 1011,8 hPa 0,0 l/m W-SW 0,00 h 53 W/m 19,8 km/h (4 Bft)
07.05.2017 08:00 9,0 C 97 % 1012,2 hPa 0,6 l/m W-SW 0,00 h 127 W/m 19,6 km/h (3 Bft)
07.05.2017 09:00 9,5 C 96 % 1012,5 hPa 0,2 l/m W-SW 0,00 h 167 W/m 20,6 km/h (4 Bft)
07.05.2017 10:00 9,9 C 96 % 1012,7 hPa 0,0 l/m W-SW 0,00 h 201 W/m 18,1 km/h (3 Bft)
07.05.2017 11:00 10,6 C 96 % 1013,1 hPa 0,2 l/m W-SW 0,00 h 309 W/m 22,4 km/h (4 Bft)
07.05.2017 12:00 11,1 C 94 % 1013,1 hPa 0,2 l/m W-SW 0,00 h 312 W/m 20,8 km/h (4 Bft)
07.05.2017 13:00 11,3 C 93 % 1013,2 hPa 0,0 l/m W-SW 0,00 h 249 W/m 20,6 km/h (4 Bft)
07.05.2017 14:00 11,1 C 93 % 1013,3 hPa 0,0 l/m W-SW 0,00 h 166 W/m 18,2 km/h (3 Bft)
07.05.2017 15:00 10,9 C 95 % 1013,4 hPa 0,4 l/m W-SW 0,00 h 167 W/m 15,8 km/h (3 Bft)
07.05.2017 16:00 11,2 C 94 % 1013,4 hPa 0,0 l/m W-SW 0,00 h 187 W/m 19,2 km/h (3 Bft)
07.05.2017 17:00 11,4 C 92 % 1013,4 hPa 0,0 l/m W-SW 0,00 h 160 W/m 16,4 km/h (3 Bft)
07.05.2017 18:00 10,8 C 93 % 1013,6 hPa 0,4 l/m W-SW 0,00 h 73 W/m 15,0 km/h (3 Bft)
07.05.2017 19:00 10,3 C 95 % 1013,6 hPa 0,4 l/m W-SW 0,00 h 27 W/m 15,3 km/h (3 Bft)
07.05.2017 20:00 9,9 C 96 % 1013,7 hPa 0,0 l/m W-SW 0,00 h 7 W/m 17,0 km/h (3 Bft)
07.05.2017 21:00 9,8 C 96 % 1014,0 hPa 0,0 l/m SW 0,00 h 0 W/m 13,4 km/h (3 Bft)
07.05.2017 22:00 9,7 C 97 % 1013,9 hPa 0,2 l/m W-SW 0,00 h 0 W/m 12,0 km/h (2 Bft)
07.05.2017 23:00 9,5 C 97 % 1013,6 hPa 0,2 l/m W-SW 0,00 h 0 W/m 16,5 km/h (3 Bft)
Min-Datum _ 01.05.17 02.05.17 01.05.17 - - - - 01.05.17
_ Min-Zeit 04:50 16:20 02:50 - - - - 00:00
Minimum _ 3,6 C 48 % 1003,9 hPa - - - - 0,0 km/h (0 Bft)
Max-Datum _ 06.05.17 07.05.17 05.05.17 01.05.17 - 05.05.17 05.05.17 07.05.17
_ Max-Zeit 14:55 08:25 10:25 11:05 - 13:55 11:35 11:40
Maximum _ 18,4 C 100 % 1017,3 hPa 2,4 l/m - 0,17 h 1141 W/m 32,2 km/h
W-SW (5 Bft)
Durchschnitt _ 8,9 C 87 % 1012,9 hPa #31,8 l/m W-SW #25:25 h 238 W/m 8,2 km/h (2 Bft)